Time;durP1;ratioP1;P1;durP2;ratioP2;P2;SDS_P1;SDS_P2;PMS_P1;PMS_P2;Temp;Humidity;BMP_temperature;BMP_pressure;BME280_temperature;BME280_humidity;BME280_pressure;Samples;Min_cycle;Max_cycle;Signal;HPM_P1;HPM_P2
2021/09/03 00:01:06;;;;;;;17.60;13.20;;;;;;;;;;5055498;28;20261;-82
2021/09/03 00:03:33;;;;;;;15.90;13.63;;;;;;;;;;5055024;28;20318;-82
2021/09/03 00:06:01;;;;;;;15.77;12.40;;;;;;;;;;5055166;28;20616;-82
2021/09/03 00:08:28;;;;;;;16.87;12.40;;;;;;;;;;5055436;28;20227;-82
2021/09/03 00:10:55;;;;;;;16.30;12.93;;;;;;;;;;5054864;28;20206;-81
2021/09/03 00:13:23;;;;;;;16.93;12.70;;;;;;;;;;5070829;28;20274;-82
2021/09/03 00:15:50;;;;;;;18.70;13.40;;;;;;;;;;5074748;28;20422;-81
2021/09/03 00:18:19;;;;;;;16.87;13.10;;;;;;;;;;5068706;28;20253;-82
2021/09/03 00:20:46;;;;;;;18.03;13.80;;;;;;;;;;5071548;28;20256;-81
2021/09/03 00:23:13;;;;;;;16.53;13.43;;;;;;;;;;5058523;28;20314;-82
2021/09/03 00:25:41;;;;;;;17.53;13.50;;;;;;;;;;5061178;28;20329;-81
2021/09/03 00:28:09;;;;;;;16.90;13.20;;;;;;;;;;5069604;28;20228;-82
2021/09/03 00:30:36;;;;;;;17.77;13.00;;;;;;;;;;5054585;28;20200;-82
2021/09/03 00:33:03;;;;;;;16.97;13.23;;;;;;;;;;5054776;28;20279;-81
2021/09/03 00:35:32;;;;;;;22.03;13.30;;;;;;;;;;5054904;28;20239;-81
2021/09/03 00:37:59;;;;;;;16.67;13.07;;;;;;;;;;5054776;28;20298;-82
2021/09/03 00:40:26;;;;;;;17.40;13.27;;;;;;;;;;5057539;28;20227;-81
2021/09/03 00:42:53;;;;;;;16.07;13.27;;;;;;;;;;5074253;28;20258;-81
2021/09/03 00:45:20;;;;;;;17.43;13.53;;;;;;;;;;5066617;28;20726;-82
2021/09/03 00:47:48;;;;;;;18.57;14.23;;;;;;;;;;5073503;28;20231;-81
2021/09/03 00:50:15;;;;;;;18.77;14.30;;;;;;;;;;5071281;28;20231;-81
2021/09/03 00:52:44;;;;;;;18.37;13.23;;;;;;;;;;5073669;28;20230;-81
2021/09/03 00:55:11;;;;;;;16.73;13.77;;;;;;;;;;5074257;28;20320;-82
2021/09/03 00:57:38;;;;;;;18.83;14.30;;;;;;;;;;5074373;28;20283;-82
2021/09/03 01:00:07;;;;;;;20.80;14.27;;;;;;;;;;5074111;28;20246;-82
2021/09/03 01:02:34;;;;;;;22.20;15.13;;;;;;;;;;5073764;28;20231;-82
2021/09/03 01:05:02;;;;;;;19.60;14.20;;;;;;;;;;5072105;28;21054;-82
2021/09/03 01:07:29;;;;;;;21.43;15.43;;;;;;;;;;5073942;28;20227;-81
2021/09/03 01:09:58;;;;;;;21.07;14.67;;;;;;;;;;5074001;28;20287;-82
2021/09/03 01:12:25;;;;;;;21.20;14.80;;;;;;;;;;5056623;28;20250;-82
2021/09/03 01:14:52;;;;;;;20.00;15.10;;;;;;;;;;5065914;28;20285;-81
2021/09/03 01:17:20;;;;;;;19.10;14.80;;;;;;;;;;5074028;28;20290;-82
2021/09/03 01:19:50;;;;;;;18.90;14.70;;;;;;;;;;5073981;28;20215;-82
2021/09/03 01:22:21;;;;;;;20.90;15.20;;;;;;;;;;5054839;28;20643;-81
2021/09/03 01:24:48;;;;;;;18.60;14.33;;;;;;;;;;5053960;28;20287;-81
2021/09/03 01:27:15;;;;;;;22.17;15.27;;;;;;;;;;5074010;28;20226;-81
2021/09/03 01:29:42;;;;;;;20.70;15.43;;;;;;;;;;5054333;28;20239;-81
2021/09/03 01:32:09;;;;;;;20.67;15.60;;;;;;;;;;5053643;28;20287;-81
2021/09/03 01:34:37;;;;;;;22.07;16.37;;;;;;;;;;5053587;28;20306;-81
2021/09/03 01:37:04;;;;;;;22.53;16.30;;;;;;;;;;5053589;28;20208;-82
2021/09/03 01:39:33;;;;;;;21.47;16.13;;;;;;;;;;5053303;28;20278;-81
2021/09/03 01:42:00;;;;;;;23.97;17.20;;;;;;;;;;5053868;28;20330;-81
2021/09/03 01:44:27;;;;;;;23.30;16.57;;;;;;;;;;5061651;28;20310;-81
2021/09/03 01:46:54;;;;;;;23.23;16.20;;;;;;;;;;5072993;28;20632;-81
2021/09/03 01:49:21;;;;;;;22.47;16.40;;;;;;;;;;5067799;28;20235;-81
2021/09/03 01:51:50;;;;;;;24.70;17.00;;;;;;;;;;5053212;28;20192;-81
2021/09/03 01:54:17;;;;;;;21.87;16.50;;;;;;;;;;5053177;28;20218;-81
2021/09/03 01:56:46;;;;;;;20.97;16.80;;;;;;;;;;5052951;28;20231;-81
2021/09/03 01:59:13;;;;;;;25.77;17.20;;;;;;;;;;5055000;28;20282;-81
2021/09/03 02:01:40;;;;;;;21.80;16.13;;;;;;;;;;5055248;28;20266;-82
2021/09/03 02:04:08;;;;;;;21.47;16.23;;;;;;;;;;5072907;28;20298;-81
2021/09/03 02:06:35;;;;;;;23.23;16.60;;;;;;;;;;5073130;28;20234;-81
2021/09/03 02:09:02;;;;;;;22.77;16.93;;;;;;;;;;5072783;28;20235;-81
2021/09/03 02:11:29;;;;;;;23.10;17.03;;;;;;;;;;5073138;28;20282;-82
2021/09/03 02:13:58;;;;;;;25.87;17.10;;;;;;;;;;5072346;28;20289;-81
2021/09/03 02:16:25;;;;;;;23.73;17.00;;;;;;;;;;5072828;28;20231;-81
2021/09/03 02:18:52;;;;;;;23.47;17.97;;;;;;;;;;5063513;28;20231;-81
2021/09/03 02:21:19;;;;;;;24.67;17.90;;;;;;;;;;5054890;28;20223;-82
2021/09/03 02:23:47;;;;;;;24.27;16.60;;;;;;;;;;5065728;28;20219;-82
2021/09/03 02:26:14;;;;;;;26.83;18.27;;;;;;;;;;5072862;28;20230;-81
2021/09/03 02:28:41;;;;;;;24.07;17.43;;;;;;;;;;5067885;28;20679;-82
2021/09/03 02:31:10;;;;;;;24.70;17.40;;;;;;;;;;5052709;28;20287;-81
2021/09/03 02:33:37;;;;;;;22.30;17.23;;;;;;;;;;5053335;28;20284;-81
2021/09/03 02:36:05;;;;;;;25.07;17.90;;;;;;;;;;5052522;28;20279;-81
2021/09/03 02:38:32;;;;;;;24.20;17.73;;;;;;;;;;5056176;28;20611;-82
2021/09/03 02:40:59;;;;;;;27.13;17.60;;;;;;;;;;5062860;28;20282;-81
2021/09/03 02:43:26;;;;;;;25.13;17.93;;;;;;;;;;5052876;28;20251;-82
2021/09/03 02:45:54;;;;;;;27.83;17.43;;;;;;;;;;5055502;28;20286;-81
2021/09/03 02:48:22;;;;;;;27.30;18.37;;;;;;;;;;5052415;28;20690;-81
2021/09/03 02:50:50;;;;;;;23.77;17.37;;;;;;;;;;5052453;28;20278;-81
2021/09/03 02:53:17;;;;;;;24.17;17.33;;;;;;;;;;5052483;28;20282;-82
2021/09/03 02:55:44;;;;;;;23.10;16.43;;;;;;;;;;5052048;28;20290;-81
2021/09/03 02:58:11;;;;;;;25.77;17.83;;;;;;;;;;5051757;28;20235;-82
2021/09/03 03:00:38;;;;;;;24.07;18.17;;;;;;;;;;5052682;28;20634;-82
2021/09/03 03:03:07;;;;;;;23.60;16.93;;;;;;;;;;5051862;28;20314;-81
2021/09/03 03:05:36;;;;;;;23.23;16.87;;;;;;;;;;5052149;28;20234;-81
2021/09/03 03:08:03;;;;;;;27.70;17.53;;;;;;;;;;5051949;28;20200;-81
2021/09/03 03:10:30;;;;;;;22.20;16.43;;;;;;;;;;5051647;28;20235;-81
2021/09/03 03:12:58;;;;;;;23.40;16.57;;;;;;;;;;5063441;28;20254;-81
2021/09/03 03:15:26;;;;;;;23.50;15.93;;;;;;;;;;5051639;28;20227;-81
2021/09/03 03:17:53;;;;;;;23.23;17.30;;;;;;;;;;5051857;28;20298;-81
2021/09/03 03:20:22;;;;;;;22.53;16.47;;;;;;;;;;5051889;28;20984;-81
2021/09/03 03:22:51;;;;;;;25.60;17.27;;;;;;;;;;5052144;28;20200;-81
2021/09/03 03:25:18;;;;;;;25.30;17.37;;;;;;;;;;5064681;28;20227;-81
2021/09/03 03:27:45;;;;;;;23.20;17.10;;;;;;;;;;5071736;28;20196;-81
2021/09/03 03:30:13;;;;;;;23.23;17.53;;;;;;;;;;5071283;28;20289;-82
2021/09/03 03:32:40;;;;;;;22.70;16.80;;;;;;;;;;5071863;28;20207;-82
2021/09/03 03:35:08;;;;;;;24.23;16.57;;;;;;;;;;5071879;28;20234;-81
2021/09/03 03:37:35;;;;;;;21.83;16.17;;;;;;;;;;5072004;28;20256;-81
2021/09/03 03:40:04;;;;;;;21.97;17.30;;;;;;;;;;5071831;28;20241;-82
2021/09/03 03:42:31;;;;;;;23.87;17.07;;;;;;;;;;5071467;28;20238;-81
2021/09/03 03:44:58;;;;;;;22.30;16.37;;;;;;;;;;5071722;28;20306;-82
2021/09/03 03:47:25;;;;;;;24.63;16.23;;;;;;;;;;5071236;28;20222;-81
2021/09/03 03:49:53;;;;;;;24.80;17.27;;;;;;;;;;5071527;28;20285;-82
2021/09/03 03:52:20;;;;;;;23.20;17.13;;;;;;;;;;5071870;28;20234;-81
2021/09/03 03:54:47;;;;;;;23.07;16.33;;;;;;;;;;5071839;28;20281;-82
2021/09/03 03:57:16;;;;;;;24.33;17.67;;;;;;;;;;5071332;28;20234;-81
2021/09/03 03:59:43;;;;;;;22.10;17.20;;;;;;;;;;5070920;28;20203;-81
2021/09/03 04:02:10;;;;;;;24.13;17.57;;;;;;;;;;5071443;28;20339;-81
2021/09/03 04:04:37;;;;;;;27.20;17.90;;;;;;;;;;5071280;28;20334;-81
2021/09/03 04:07:05;;;;;;;24.23;17.07;;;;;;;;;;5061539;28;20236;-82
2021/09/03 04:09:32;;;;;;;28.07;18.03;;;;;;;;;;5055319;28;20218;-81
2021/09/03 04:11:59;;;;;;;25.53;18.30;;;;;;;;;;5071295;28;20286;-81
2021/09/03 04:14:28;;;;;;;24.30;17.27;;;;;;;;;;5071823;28;20234;-81
2021/09/03 04:16:55;;;;;;;26.07;17.63;;;;;;;;;;5071141;28;20262;-81
2021/09/03 04:19:22;;;;;;;24.80;18.33;;;;;;;;;;5071550;28;20230;-81
2021/09/03 04:21:49;;;;;;;26.00;18.40;;;;;;;;;;5071445;28;20613;-80
2021/09/03 04:24:16;;;;;;;24.87;18.13;;;;;;;;;;5071169;28;20314;-81
2021/09/03 04:26:44;;;;;;;29.03;18.73;;;;;;;;;;5071519;28;20199;-81
2021/09/03 04:29:11;;;;;;;26.00;18.67;;;;;;;;;;5070908;28;20199;-81
2021/09/03 04:31:39;;;;;;;28.27;18.50;;;;;;;;;;5059428;28;20286;-81
2021/09/03 04:34:07;;;;;;;24.67;18.63;;;;;;;;;;5051035;28;20224;-81
2021/09/03 04:36:34;;;;;;;27.47;19.43;;;;;;;;;;5051510;28;20294;-81
2021/09/03 04:39:01;;;;;;;25.10;18.03;;;;;;;;;;5050888;28;20357;-81
2021/09/03 04:41:28;;;;;;;26.87;19.13;;;;;;;;;;5053185;28;20231;-81
2021/09/03 04:43:56;;;;;;;25.23;18.40;;;;;;;;;;5058857;28;20215;-81
2021/09/03 04:46:23;;;;;;;26.10;18.67;;;;;;;;;;5073413;28;20210;-81
2021/09/03 04:48:51;;;;;;;26.27;17.87;;;;;;;;;;5074759;28;20238;-81
2021/09/03 04:51:19;;;;;;;25.23;18.93;;;;;;;;;;5074792;28;20249;-81
2021/09/03 04:53:46;;;;;;;25.83;19.17;;;;;;;;;;5071252;28;20223;-82
2021/09/03 04:56:13;;;;;;;25.63;18.53;;;;;;;;;;5066461;28;20683;-81
2021/09/03 04:58:40;;;;;;;25.40;18.93;;;;;;;;;;5074635;28;20227;-81
2021/09/03 05:01:07;;;;;;;25.63;18.73;;;;;;;;;;5067260;28;20286;-82
2021/09/03 05:03:35;;;;;;;27.13;17.87;;;;;;;;;;5071472;28;20223;-83
2021/09/03 05:06:03;;;;;;;25.43;19.07;;;;;;;;;;5064430;28;20231;-82
2021/09/03 05:08:30;;;;;;;27.03;19.17;;;;;;;;;;5062013;28;20227;-83
2021/09/03 05:10:57;;;;;;;28.30;18.50;;;;;;;;;;5063447;28;20195;-83
2021/09/03 05:13:25;;;;;;;23.97;17.60;;;;;;;;;;5062080;28;20290;-83
2021/09/03 05:15:52;;;;;;;28.13;18.70;;;;;;;;;;5054043;28;20235;-83
2021/09/03 05:18:20;;;;;;;24.47;17.83;;;;;;;;;;5065568;28;20274;-83
2021/09/03 05:20:47;;;;;;;24.73;18.37;;;;;;;;;;5067420;28;20286;-82
2021/09/03 05:23:15;;;;;;;25.80;18.90;;;;;;;;;;5062567;28;20279;-83
2021/09/03 05:25:43;;;;;;;24.33;18.33;;;;;;;;;;5057978;28;20273;-81
2021/09/03 05:28:10;;;;;;;28.33;18.50;;;;;;;;;;5061328;28;20663;-83
2021/09/03 05:30:38;;;;;;;25.83;18.57;;;;;;;;;;5063146;28;21614;-84
2021/09/03 05:33:05;;;;;;;26.93;19.40;;;;;;;;;;5054297;28;20287;-83
2021/09/03 05:35:32;;;;;;;28.80;19.10;;;;;;;;;;5065468;28;20278;-83
2021/09/03 05:38:04;;;;;;;28.27;19.97;;;;;;;;;;5062950;28;20628;-82
2021/09/03 05:40:33;;;;;;;25.70;18.97;;;;;;;;;;5064891;28;20225;-82
2021/09/03 05:43:00;;;;;;;25.27;18.57;;;;;;;;;;5072747;28;20886;-82
2021/09/03 05:45:29;;;;;;;27.83;19.70;;;;;;;;;;5062284;28;20310;-82
2021/09/03 05:47:58;;;;;;;27.27;19.70;;;;;;;;;;5072429;28;20286;-82
2021/09/03 05:50:25;;;;;;;28.60;20.00;;;;;;;;;;5072127;28;20239;-82
2021/09/03 05:52:52;;;;;;;26.10;20.17;;;;;;;;;;5072124;28;20253;-82
2021/09/03 05:55:19;;;;;;;26.63;20.10;;;;;;;;;;5065505;28;20271;-82
2021/09/03 05:57:51;;;;;;;28.77;20.23;;;;;;;;;;5053327;28;20200;-81
2021/09/03 06:00:18;;;;;;;27.90;20.17;;;;;;;;;;5061631;28;20244;-81
2021/09/03 06:02:45;;;;;;;27.60;20.77;;;;;;;;;;5072231;28;20306;-82
2021/09/03 06:05:13;;;;;;;27.97;20.43;;;;;;;;;;5068034;28;20323;-81
2021/09/03 06:07:40;;;;;;;26.37;20.10;;;;;;;;;;5063240;28;20227;-81
2021/09/03 06:10:08;;;;;;;33.07;20.03;;;;;;;;;;5052909;28;20200;-82
2021/09/03 06:12:36;;;;;;;28.10;19.60;;;;;;;;;;5061683;28;20231;-82
2021/09/03 06:15:05;;;;;;;29.43;20.00;;;;;;;;;;5056891;28;20739;-81
2021/09/03 06:17:33;;;;;;;25.67;19.50;;;;;;;;;;5062421;28;20274;-82
2021/09/03 06:20:00;;;;;;;25.30;19.17;;;;;;;;;;5056849;28;20597;-82
2021/09/03 06:22:27;;;;;;;25.57;18.83;;;;;;;;;;5066046;28;20307;-81
2021/09/03 06:24:55;;;;;;;25.70;19.47;;;;;;;;;;5052718;28;20315;-82
2021/09/03 06:27:22;;;;;;;29.03;20.00;;;;;;;;;;5052767;28;20282;-82
2021/09/03 06:29:49;;;;;;;26.33;19.67;;;;;;;;;;5052353;28;20672;-82
2021/09/03 06:32:19;;;;;;;24.33;18.70;;;;;;;;;;5052400;28;20200;-82
2021/09/03 06:34:47;;;;;;;24.90;19.23;;;;;;;;;;5052647;28;20278;-82
2021/09/03 06:37:15;;;;;;;25.50;18.63;;;;;;;;;;5052442;28;20227;-81
2021/09/03 06:39:42;;;;;;;29.43;19.17;;;;;;;;;;5051543;28;20291;-82
2021/09/03 06:42:10;;;;;;;25.67;19.17;;;;;;;;;;5051273;28;20310;-82
2021/09/03 06:44:37;;;;;;;27.07;18.67;;;;;;;;;;5051284;28;20255;-82
2021/09/03 06:47:05;;;;;;;24.37;18.67;;;;;;;;;;5051611;28;20231;-81
2021/09/03 06:49:35;;;;;;;25.17;18.60;;;;;;;;;;5050805;28;20283;-82
2021/09/03 06:52:02;;;;;;;25.50;18.53;;;;;;;;;;5052009;28;20302;-81
2021/09/03 06:54:31;;;;;;;30.57;19.33;;;;;;;;;;5051771;28;20253;-82
2021/09/03 06:56:58;;;;;;;27.00;19.13;;;;;;;;;;5051709;28;20238;-82
2021/09/03 06:59:25;;;;;;;25.43;19.37;;;;;;;;;;5052843;28;20275;-82
2021/09/03 07:01:53;;;;;;;31.73;21.00;;;;;;;;;;5061266;28;20320;-81
2021/09/03 07:04:20;;;;;;;27.33;20.63;;;;;;;;;;5066600;28;20263;-82
2021/09/03 07:06:50;;;;;;;29.77;21.33;;;;;;;;;;5064871;28;20241;-82
2021/09/03 07:09:17;;;;;;;29.37;21.97;;;;;;;;;;5062716;28;20206;-82
2021/09/03 07:11:44;;;;;;;32.10;23.13;;;;;;;;;;5053386;28;20287;-82
2021/09/03 07:14:12;;;;;;;31.63;22.60;;;;;;;;;;5065586;28;20223;-80
2021/09/03 07:16:39;;;;;;;31.50;21.93;;;;;;;;;;5051635;28;20231;-82
2021/09/03 07:19:06;;;;;;;31.10;21.80;;;;;;;;;;5068386;28;20195;-81
2021/09/03 07:21:34;;;;;;;30.63;21.50;;;;;;;;;;5053057;28;20617;-82
2021/09/03 07:24:02;;;;;;;30.23;20.73;;;;;;;;;;5065046;28;20203;-82
2021/09/03 07:26:30;;;;;;;28.33;20.90;;;;;;;;;;5054415;28;20557;-82
2021/09/03 07:28:57;;;;;;;24.70;19.20;;;;;;;;;;5056952;28;20211;-82
2021/09/03 07:31:25;;;;;;;25.13;18.40;;;;;;;;;;5071048;28;20259;-81
2021/09/03 07:33:53;;;;;;;26.10;18.97;;;;;;;;;;5069261;28;20199;-82
2021/09/03 07:36:20;;;;;;;25.23;18.60;;;;;;;;;;5069813;28;20293;-81
2021/09/03 07:38:47;;;;;;;24.47;18.07;;;;;;;;;;5064970;28;20282;-82
2021/09/03 07:41:16;;;;;;;22.43;18.00;;;;;;;;;;5057098;28;20301;-81
2021/09/03 07:43:43;;;;;;;22.77;17.93;;;;;;;;;;5055909;28;20227;-81
2021/09/03 07:46:10;;;;;;;23.53;17.03;;;;;;;;;;5053517;28;20302;-81
2021/09/03 07:48:37;;;;;;;20.23;16.67;;;;;;;;;;5056814;28;20738;-82
2021/09/03 07:51:04;;;;;;;25.47;18.30;;;;;;;;;;5063849;28;20203;-82
2021/09/03 07:53:32;;;;;;;23.07;17.50;;;;;;;;;;5069416;28;20286;-81
2021/09/03 07:56:00;;;;;;;23.00;17.10;;;;;;;;;;5051139;28;20739;-81
2021/09/03 07:58:28;;;;;;;22.53;17.20;;;;;;;;;;5054942;28;20191;-81
2021/09/03 08:00:56;;;;;;;22.57;16.47;;;;;;;;;;5070002;28;20292;-82
2021/09/03 08:03:23;;;;;;;22.03;16.27;;;;;;;;;;5071092;28;20753;-82
2021/09/03 08:05:50;;;;;;;21.37;16.20;;;;;;;;;;5065161;28;20250;-82
2021/09/03 08:08:18;;;;;;;20.90;16.03;;;;;;;;;;5051579;28;20214;-82
2021/09/03 08:10:45;;;;;;;19.90;15.43;;;;;;;;;;5067469;28;20237;-82
2021/09/03 08:13:13;;;;;;;20.97;15.50;;;;;;;;;;5070672;28;20290;-81
2021/09/03 08:15:42;;;;;;;18.60;15.30;;;;;;;;;;5065761;28;20203;-82
2021/09/03 08:18:09;;;;;;;19.53;15.43;;;;;;;;;;5054869;28;20204;-82
2021/09/03 08:20:37;;;;;;;18.30;14.27;;;;;;;;;;5066975;28;20245;-82
2021/09/03 08:23:05;;;;;;;17.30;13.83;;;;;;;;;;5074506;28;20278;-81
2021/09/03 08:25:32;;;;;;;19.42;14.68;;;;;;;;;;5074919;28;20261;-82
2021/09/03 08:27:59;;;;;;;17.88;13.20;;;;;;;;;;5075058;28;20236;-82
2021/09/03 08:30:27;;;;;;;19.23;14.23;;;;;;;;;;5075035;28;20203;-82
2021/09/03 08:32:55;;;;;;;18.00;14.13;;;;;;;;;;5074701;28;20607;-82
2021/09/03 08:35:24;;;;;;;18.63;14.20;;;;;;;;;;5073680;28;20289;-82
2021/09/03 08:37:51;;;;;;;18.20;13.65;;;;;;;;;;5074002;28;20286;-82
2021/09/03 08:40:18;;;;;;;16.23;13.93;;;;;;;;;;5074873;28;20226;-82
2021/09/03 08:42:46;;;;;;;16.73;13.43;;;;;;;;;;5068302;28;20235;-83
2021/09/03 08:45:15;;;;;;;16.90;13.10;;;;;;;;;;5074064;28;20770;-82
2021/09/03 08:47:43;;;;;;;17.67;12.32;;;;;;;;;;5068286;28;20200;-82
2021/09/03 08:50:13;;;;;;;18.08;13.98;;;;;;;;;;5054547;28;20609;-82
2021/09/03 08:52:43;;;;;;;15.27;12.38;;;;;;;;;;5070863;28;20203;-82
2021/09/03 08:55:11;;;;;;;16.17;14.02;;;;;;;;;;5074669;28;20206;-82
2021/09/03 08:57:38;;;;;;;15.93;13.15;;;;;;;;;;5074631;28;20229;-81
2021/09/03 09:00:16;;;;;;;15.20;12.70;;;;;;;;;;5063757;28;20234;-82
2021/09/03 09:03:12;;;;;;;16.65;13.10;;;;;;;;;;5053988;28;20251;-82
2021/09/03 09:05:51;;;;;;;15.00;12.48;;;;;;;;;;4973445;28;20238;-83
2021/09/03 09:08:19;;;;;;;15.90;13.07;;;;;;;;;;4979701;28;20198;-82
2021/09/03 09:10:48;;;;;;;15.10;12.23;;;;;;;;;;4992969;28;20210;-82
2021/09/03 09:13:16;;;;;;;15.15;12.60;;;;;;;;;;4980644;28;20709;-82
2021/09/03 09:15:43;;;;;;;14.32;11.98;;;;;;;;;;4974540;28;20198;-82
2021/09/03 09:18:10;;;;;;;13.60;11.55;;;;;;;;;;4974993;28;20293;-82
2021/09/03 09:20:37;;;;;;;16.63;11.75;;;;;;;;;;4987414;28;20285;-82
2021/09/03 09:23:07;;;;;;;14.55;10.45;;;;;;;;;;4992080;28;20639;-82
2021/09/03 09:25:35;;;;;;;14.63;11.75;;;;;;;;;;4986243;28;20218;-82
2021/09/03 09:28:16;;;;;;;13.40;10.95;;;;;;;;;;4979790;28;20294;-81
2021/09/03 09:30:44;;;;;;;11.63;10.43;;;;;;;;;;4977545;28;20238;-82
2021/09/03 09:33:12;;;;;;;12.82;10.70;;;;;;;;;;4973666;28;20206;-82
2021/09/03 09:35:43;;;;;;;11.32;9.90;;;;;;;;;;4980702;28;20220;-82
2021/09/03 09:38:12;;;;;;;13.65;10.35;;;;;;;;;;4993750;28;20281;-82
2021/09/03 09:40:46;;;;;;;14.07;10.68;;;;;;;;;;4994737;28;20228;-82
2021/09/03 09:43:33;;;;;;;11.68;10.30;;;;;;;;;;5068991;28;20233;-82
2021/09/03 09:46:15;;;;;;;12.80;10.00;;;;;;;;;;5076139;28;20317;-82
2021/09/03 09:48:57;;;;;;;11.50;9.88;;;;;;;;;;5072452;28;20191;-82
2021/09/03 09:51:25;;;;;;;14.95;10.63;;;;;;;;;;5074096;28;20652;-82
2021/09/03 09:53:57;;;;;;;13.27;10.07;;;;;;;;;;5070525;28;20192;-82
2021/09/03 09:56:25;;;;;;;13.02;10.05;;;;;;;;;;5067533;28;20234;-82
2021/09/03 09:58:53;;;;;;;13.05;9.95;;;;;;;;;;5074008;28;20226;-82
2021/09/03 10:01:20;;;;;;;10.73;9.43;;;;;;;;;;5064647;28;20667;-82
2021/09/03 10:03:48;;;;;;;11.88;9.60;;;;;;;;;;5072873;28;20262;-82
2021/09/03 10:06:17;;;;;;;10.88;9.02;;;;;;;;;;5064206;28;20219;-82
2021/09/03 10:08:46;;;;;;;10.13;8.88;;;;;;;;;;5054569;28;20722;-82
2021/09/03 10:11:16;;;;;;;11.73;9.57;;;;;;;;;;5066455;28;20206;-83
2021/09/03 10:13:43;;;;;;;11.35;9.77;;;;;;;;;;5071963;28;20749;-82
2021/09/03 10:16:10;;;;;;;10.23;9.13;;;;;;;;;;5070150;28;20838;-82
2021/09/03 10:18:38;;;;;;;10.13;8.27;;;;;;;;;;5053340;28;20286;-82
2021/09/03 10:21:06;;;;;;;9.77;8.77;;;;;;;;;;5053898;28;20196;-82
2021/09/03 10:23:56;;;;;;;10.52;9.18;;;;;;;;;;5062208;28;20227;-82
2021/09/03 10:26:26;;;;;;;9.70;8.60;;;;;;;;;;5068412;28;20310;-82
2021/09/03 10:29:12;;;;;;;10.95;9.80;;;;;;;;;;5072937;28;20235;-81
2021/09/03 10:32:10;;;;;;;12.75;9.55;;;;;;;;;;5072900;28;20275;-82
2021/09/03 10:34:43;;;;;;;11.48;8.98;;;;;;;;;;5067623;28;20196;-82
2021/09/03 10:37:21;;;;;;;11.60;9.30;;;;;;;;;;5058804;28;20191;-82
2021/09/03 10:39:49;;;;;;;10.55;9.45;;;;;;;;;;5062618;28;20287;-82
2021/09/03 10:42:45;;;;;;;10.75;8.85;;;;;;;;;;5052239;28;20711;-82
2021/09/03 10:45:14;;;;;;;10.63;8.57;;;;;;;;;;5058668;28;20230;-82
2021/09/03 10:47:42;;;;;;;9.75;8.25;;;;;;;;;;5071801;28;20195;-81
2021/09/03 10:50:10;;;;;;;8.93;8.02;;;;;;;;;;5053962;28;20287;-82
2021/09/03 10:52:37;;;;;;;9.00;8.10;;;;;;;;;;5064886;28;20234;-81
2021/09/03 10:55:08;;;;;;;9.15;7.38;;;;;;;;;;5072016;28;20239;-82
2021/09/03 10:57:50;;;;;;;9.07;7.70;;;;;;;;;;5072121;28;20210;-82
2021/09/03 11:00:19;;;;;;;8.15;7.35;;;;;;;;;;5056131;28;20238;-81
2021/09/03 11:02:46;;;;;;;8.10;7.03;;;;;;;;;;5058037;28;20715;-82
2021/09/03 11:05:14;;;;;;;8.32;7.50;;;;;;;;;;5057911;28;20259;-79
2021/09/03 11:07:43;;;;;;;9.02;7.78;;;;;;;;;;5059251;28;20257;-81
2021/09/03 11:10:17;;;;;;;9.07;8.18;;;;;;;;;;5051196;28;20233;-81
2021/09/03 11:12:49;;;;;;;8.68;7.68;;;;;;;;;;5062551;28;20290;-81
2021/09/03 11:15:16;;;;;;;9.45;7.90;;;;;;;;;;5070665;28;20230;-81
2021/09/03 11:17:45;;;;;;;8.80;8.00;;;;;;;;;;5054266;28;20231;-81
2021/09/03 11:20:14;;;;;;;8.98;7.53;;;;;;;;;;5054493;28;20231;-82
2021/09/03 11:22:41;;;;;;;8.25;7.35;;;;;;;;;;5053571;28;20286;-82
2021/09/03 11:25:09;;;;;;;11.77;7.68;;;;;;;;;;5060118;28;20286;-81
2021/09/03 11:27:37;;;;;;;7.75;6.90;;;;;;;;;;5062042;28;20199;-82
2021/09/03 11:30:05;;;;;;;7.93;6.47;;;;;;;;;;5051192;28;20204;-82
2021/09/03 11:32:36;;;;;;;7.13;6.47;;;;;;;;;;5051064;28;20260;-82
2021/09/03 11:35:05;;;;;;;7.75;6.72;;;;;;;;;;5050566;28;20223;-81
2021/09/03 11:37:35;;;;;;;8.40;6.68;;;;;;;;;;5050194;28;20283;-79
2021/09/03 11:40:04;;;;;;;6.90;6.20;;;;;;;;;;5051026;28;20234;-82
2021/09/03 11:42:32;;;;;;;7.50;6.30;;;;;;;;;;5051177;28;20207;-81
2021/09/03 11:45:01;;;;;;;7.15;6.45;;;;;;;;;;5050694;28;20215;-81
2021/09/03 11:47:35;;;;;;;8.02;6.50;;;;;;;;;;5050707;28;20219;-81
2021/09/03 11:50:03;;;;;;;8.50;6.15;;;;;;;;;;5052442;28;20204;-81
2021/09/03 11:52:33;;;;;;;7.18;6.47;;;;;;;;;;5054801;28;20598;-82
2021/09/03 11:55:01;;;;;;;8.48;7.30;;;;;;;;;;5054769;28;20250;-81
2021/09/03 11:57:28;;;;;;;7.93;6.80;;;;;;;;;;5054969;28;20223;-82
2021/09/03 11:59:56;;;;;;;8.20;7.03;;;;;;;;;;5054005;28;20687;-82
2021/09/03 12:02:24;;;;;;;9.48;7.38;;;;;;;;;;5054857;28;20280;-81
2021/09/03 12:04:51;;;;;;;10.25;7.47;;;;;;;;;;5054409;28;20259;-81
2021/09/03 12:07:19;;;;;;;7.68;6.95;;;;;;;;;;5054454;28;20319;-81
2021/09/03 12:09:48;;;;;;;7.85;7.05;;;;;;;;;;5054082;28;20589;-81
2021/09/03 12:12:23;;;;;;;7.80;7.00;;;;;;;;;;5054044;28;20249;-81
2021/09/03 12:14:57;;;;;;;7.57;6.80;;;;;;;;;;5054176;28;20223;-81
2021/09/03 12:17:36;;;;;;;8.20;7.15;;;;;;;;;;5054755;28;20194;-80
2021/09/03 12:20:09;;;;;;;8.32;7.10;;;;;;;;;;5054722;28;20286;-80
2021/09/03 12:22:46;;;;;;;9.45;7.60;;;;;;;;;;5054762;28;20230;-81
2021/09/03 12:25:15;;;;;;;8.07;7.28;;;;;;;;;;5054657;28;20278;-81
2021/09/03 12:27:42;;;;;;;8.85;7.57;;;;;;;;;;5055017;28;20220;-81
2021/09/03 12:30:10;;;;;;;8.20;7.40;;;;;;;;;;5054568;28;20597;-81
2021/09/03 12:32:37;;;;;;;7.95;7.15;;;;;;;;;;5055052;28;20224;-81
2021/09/03 12:35:09;;;;;;;8.35;7.57;;;;;;;;;;5054223;28;20283;-80
2021/09/03 12:37:36;;;;;;;10.35;7.38;;;;;;;;;;5053910;28;20247;-81
2021/09/03 12:40:06;;;;;;;9.48;7.78;;;;;;;;;;5061176;28;20282;-81
2021/09/03 12:42:40;;;;;;;8.48;7.60;;;;;;;;;;5060556;28;20625;-81
2021/09/03 12:45:08;;;;;;;11.23;7.60;;;;;;;;;;5059041;28;20218;-80
2021/09/03 12:47:35;;;;;;;8.65;7.65;;;;;;;;;;5066224;28;20634;-81
2021/09/03 12:50:11;;;;;;;8.82;7.70;;;;;;;;;;5056426;28;20199;-81
2021/09/03 12:52:38;;;;;;;9.48;7.28;;;;;;;;;;5063076;28;20276;-80
2021/09/03 12:55:06;;;;;;;10.13;7.07;;;;;;;;;;5072700;28;20234;-81
2021/09/03 12:57:35;;;;;;;9.15;7.00;;;;;;;;;;5059918;28;20686;-81
2021/09/03 13:00:03;;;;;;;7.95;6.82;;;;;;;;;;5066729;28;20732;-82
2021/09/03 13:02:32;;;;;;;7.18;6.35;;;;;;;;;;5065360;28;20282;-82
2021/09/03 13:04:59;;;;;;;7.07;6.32;;;;;;;;;;5067652;28;20702;-82
2021/09/03 13:07:26;;;;;;;7.50;6.70;;;;;;;;;;5074177;28;20776;-82
2021/09/03 13:09:54;;;;;;;8.15;6.18;;;;;;;;;;5073880;28;20294;-82
2021/09/03 13:12:21;;;;;;;7.13;6.35;;;;;;;;;;5073667;28;20687;-82
2021/09/03 13:14:49;;;;;;;6.97;6.22;;;;;;;;;;5064202;28;20199;-82
2021/09/03 13:17:17;;;;;;;6.47;5.75;;;;;;;;;;5062224;28;20267;-82
2021/09/03 13:19:45;;;;;;;7.55;6.00;;;;;;;;;;5074147;28;20277;-81
2021/09/03 13:22:12;;;;;;;6.35;5.75;;;;;;;;;;5070889;28;20290;-82
2021/09/03 13:24:39;;;;;;;6.93;6.30;;;;;;;;;;5073481;28;20238;-82
2021/09/03 13:27:06;;;;;;;6.22;5.60;;;;;;;;;;5070138;28;20273;-82
2021/09/03 13:29:34;;;;;;;8.48;5.88;;;;;;;;;;5073567;28;20282;-82
2021/09/03 13:32:02;;;;;;;8.25;5.95;;;;;;;;;;5063817;28;20237;-81
2021/09/03 13:34:30;;;;;;;14.55;6.32;;;;;;;;;;5073616;28;20199;-82
2021/09/03 13:36:57;;;;;;;6.85;5.75;;;;;;;;;;5073273;28;20715;-82
2021/09/03 13:39:24;;;;;;;6.15;5.65;;;;;;;;;;5073574;28;20278;-82
2021/09/03 13:41:52;;;;;;;6.22;5.63;;;;;;;;;;5058881;28;20223;-82
2021/09/03 13:44:19;;;;;;;6.15;5.50;;;;;;;;;;5059094;28;20278;-82
2021/09/03 13:46:46;;;;;;;7.25;5.72;;;;;;;;;;5072446;28;20702;-82
2021/09/03 13:49:15;;;;;;;7.55;6.18;;;;;;;;;;5054641;28;20196;-81
2021/09/03 13:51:42;;;;;;;6.25;5.55;;;;;;;;;;5071309;28;20230;-82
2021/09/03 13:54:09;;;;;;;8.48;6.40;;;;;;;;;;5060810;28;20582;-82
2021/09/03 13:56:37;;;;;;;6.30;5.70;;;;;;;;;;5072732;28;20194;-82
2021/09/03 13:59:06;;;;;;;5.72;5.13;;;;;;;;;;5066708;28;20229;-80
2021/09/03 14:01:33;;;;;;;7.40;5.72;;;;;;;;;;5054213;28;20250;-81
2021/09/03 14:04:00;;;;;;;6.22;5.53;;;;;;;;;;5052746;28;20243;-81
2021/09/03 14:06:29;;;;;;;7.95;5.43;;;;;;;;;;5068819;28;20254;-81
2021/09/03 14:08:56;;;;;;;5.85;5.35;;;;;;;;;;5063118;28;20627;-81
2021/09/03 14:11:23;;;;;;;7.45;5.63;;;;;;;;;;5053348;28;20282;-80
2021/09/03 14:13:51;;;;;;;6.10;5.20;;;;;;;;;;5061886;28;20276;-80
2021/09/03 14:16:18;;;;;;;6.28;5.40;;;;;;;;;;5054852;28;20223;-81
2021/09/03 14:18:45;;;;;;;6.65;5.10;;;;;;;;;;5052446;28;20286;-81
2021/09/03 14:21:13;;;;;;;5.63;4.90;;;;;;;;;;5052966;28;20726;-81
2021/09/03 14:23:41;;;;;;;6.45;5.47;;;;;;;;;;5072614;28;20206;-80
2021/09/03 14:26:10;;;;;;;8.27;5.80;;;;;;;;;;5072591;28;20286;-81
2021/09/03 14:28:38;;;;;;;6.97;6.13;;;;;;;;;;5072716;28;20289;-81
2021/09/03 14:31:05;;;;;;;6.60;5.13;;;;;;;;;;5066392;28;20200;-81